createdAt,value
2017-10-26T00:01:48.841Z,6.00
2017-10-26T00:04:16.985Z,6.57
2017-10-26T00:06:45.124Z,5.90
2017-10-26T00:09:13.299Z,4.90
2017-10-26T00:11:42.228Z,6.13
2017-10-26T00:14:10.371Z,5.10
2017-10-26T00:16:38.532Z,3.87
2017-10-26T00:19:06.678Z,8.53
2017-10-26T00:21:34.842Z,4.27
2017-10-26T00:24:03.121Z,4.43
2017-10-26T00:26:32.434Z,5.10
2017-10-26T00:29:00.591Z,4.47
2017-10-26T00:31:29.470Z,4.10
2017-10-26T00:33:58.405Z,3.20
2017-10-26T00:36:26.559Z,3.47
2017-10-26T00:38:54.710Z,3.40
2017-10-26T00:41:23.601Z,3.60
2017-10-26T00:43:52.497Z,4.70
2017-10-26T00:46:20.632Z,5.83
2017-10-26T00:48:50.260Z,5.07
2017-10-26T00:51:19.227Z,6.63
2017-10-26T00:53:47.421Z,11.17
2017-10-26T00:56:16.330Z,17.37
2017-10-26T00:58:44.524Z,22.57
2017-10-26T01:01:12.642Z,30.60
2017-10-26T01:03:40.765Z,14.57
2017-10-26T01:06:09.856Z,17.93
2017-10-26T01:08:38.728Z,14.03
2017-10-26T01:11:06.860Z,9.40
2017-10-26T01:13:34.995Z,15.43
2017-10-26T01:16:03.144Z,9.17
2017-10-26T01:18:32.041Z,10.00
2017-10-26T01:21:00.171Z,11.20
2017-10-26T01:23:28.312Z,11.50
2017-10-26T01:25:56.452Z,9.87
2017-10-26T01:28:24.645Z,9.60
2017-10-26T01:30:53.340Z,8.73
2017-10-26T01:33:21.502Z,6.97
2017-10-26T01:35:49.731Z,9.90
2017-10-26T01:38:18.640Z,7.73
2017-10-26T01:40:46.773Z,3.73
2017-10-26T01:43:14.921Z,3.70
2017-10-26T01:45:43.064Z,4.13
2017-10-26T01:48:11.203Z,4.97
2017-10-26T01:50:39.432Z,4.33
2017-10-26T01:53:07.725Z,4.57
2017-10-26T01:55:35.869Z,5.27
2017-10-26T01:58:04.001Z,8.00
2017-10-26T02:00:32.744Z,8.67
2017-10-26T02:03:00.871Z,99.97
2017-10-26T02:05:29.777Z,8.20
2017-10-26T02:07:58.676Z,10.23
2017-10-26T02:10:26.833Z,12.83
2017-10-26T02:12:55.006Z,16.70
2017-10-26T02:15:23.135Z,24.20
2017-10-26T02:17:51.392Z,21.33
2017-10-26T02:20:19.533Z,16.20
2017-10-26T02:22:48.441Z,15.67
2017-10-26T02:25:16.585Z,16.20
2017-10-26T02:27:45.552Z,12.50
2017-10-26T02:30:25.410Z,11.50
2017-10-26T02:32:55.357Z,8.67
2017-10-26T02:35:23.552Z,12.30
2017-10-26T02:37:51.700Z,8.80
2017-10-26T02:40:19.845Z,8.50
2017-10-26T02:42:48.785Z,9.83
2017-10-26T02:45:16.995Z,10.23
2017-10-26T02:47:45.153Z,9.60
2017-10-26T02:50:13.307Z,6.80
2017-10-26T02:52:41.497Z,6.37
2017-10-26T02:55:09.633Z,6.27
2017-10-26T02:57:37.769Z,6.60
2017-10-26T03:00:06.762Z,7.33
2017-10-26T03:02:35.684Z,6.33
2017-10-26T03:05:03.828Z,6.13
2017-10-26T03:07:32.871Z,5.63
2017-10-26T03:10:01.013Z,6.30
2017-10-26T03:12:30.037Z,6.63
2017-10-26T03:14:58.165Z,5.57
2017-10-26T03:17:27.129Z,8.30
2017-10-26T03:19:55.345Z,5.53
2017-10-26T03:22:23.508Z,7.00
2017-10-26T03:24:52.410Z,4.30
2017-10-26T03:27:21.335Z,3.57
2017-10-26T03:29:49.523Z,7.37
2017-10-26T03:32:17.682Z,4.50
2017-10-26T03:34:45.821Z,5.23
2017-10-26T03:37:14.704Z,5.67
2017-10-26T03:39:42.885Z,8.47
2017-10-26T03:42:11.789Z,7.70
2017-10-26T03:44:39.981Z,13.43
2017-10-26T03:47:08.161Z,11.93
2017-10-26T03:49:36.327Z,7.30
2017-10-26T03:52:04.461Z,11.63
2017-10-26T03:54:32.668Z,8.07
2017-10-26T03:57:01.574Z,11.03
2017-10-26T03:59:30.191Z,16.67
2017-10-26T04:01:58.307Z,13.20
2017-10-26T04:04:26.436Z,12.50
2017-10-26T04:06:55.641Z,28.17
2017-10-26T04:09:24.567Z,16.67
2017-10-26T04:11:52.751Z,8.43
2017-10-26T04:14:20.901Z,5.70
2017-10-26T04:16:49.748Z,6.93
2017-10-26T04:19:17.918Z,6.50
2017-10-26T04:21:46.311Z,5.90
2017-10-26T04:24:14.449Z,7.63
2017-10-26T04:26:42.609Z,8.03
2017-10-26T04:29:10.737Z,8.77
2017-10-26T04:31:38.945Z,11.87
2017-10-26T04:34:07.083Z,10.97
2017-10-26T04:36:35.351Z,6.60
2017-10-26T04:39:03.715Z,10.27
2017-10-26T04:41:32.032Z,9.30
2017-10-26T04:44:01.124Z,10.97
2017-10-26T04:46:29.580Z,10.93
2017-10-26T04:48:58.514Z,13.63
2017-10-26T04:51:26.623Z,12.33
2017-10-26T04:53:54.880Z,10.37
2017-10-26T04:56:23.862Z,12.60
2017-10-26T04:58:55.626Z,9.70
2017-10-26T05:01:25.074Z,10.10
2017-10-26T05:03:54.004Z,11.50
2017-10-26T05:06:22.150Z,9.47
2017-10-26T05:08:50.479Z,9.23
2017-10-26T05:11:18.622Z,10.00
2017-10-26T05:13:46.897Z,10.87
2017-10-26T05:16:15.091Z,19.50
2017-10-26T05:18:43.260Z,37.40
2017-10-26T05:21:11.513Z,19.57
2017-10-26T05:23:39.668Z,25.80
2017-10-26T05:26:07.810Z,12.37
2017-10-26T05:28:36.753Z,20.40
2017-10-26T05:31:04.901Z,20.40
2017-10-26T05:33:33.195Z,16.90
2017-10-26T05:36:01.357Z,40.70
2017-10-26T05:38:29.563Z,35.83
2017-10-26T05:40:57.788Z,42.40
2017-10-26T05:43:27.386Z,53.33
2017-10-26T05:45:56.377Z,29.43
2017-10-26T05:48:25.389Z,23.30
2017-10-26T05:50:53.621Z,18.80
2017-10-26T05:53:23.260Z,18.87
2017-10-26T05:55:52.298Z,15.63
2017-10-26T05:58:20.549Z,16.20
2017-10-26T06:00:48.804Z,16.40
2017-10-26T06:03:17.714Z,18.37
2017-10-26T06:05:45.874Z,16.23
2017-10-26T06:08:14.136Z,21.77
2017-10-26T06:10:43.041Z,26.20
2017-10-26T06:13:11.349Z,20.73
2017-10-26T06:15:39.484Z,23.10
2017-10-26T06:18:07.666Z,18.20
2017-10-26T06:20:35.830Z,26.10
2017-10-26T06:23:04.809Z,28.67
2017-10-26T06:25:32.950Z,32.23
2017-10-26T06:28:01.112Z,34.33
2017-10-26T06:30:29.315Z,83.27
2017-10-26T06:32:57.620Z,87.07
2017-10-26T06:35:26.524Z,136.87
2017-10-26T06:37:54.719Z,58.87
2017-10-26T06:40:22.957Z,56.37
2017-10-26T06:42:52.925Z,66.60
2017-10-26T06:45:21.098Z,45.93
2017-10-26T06:47:49.261Z,51.23
2017-10-26T06:50:17.486Z,33.37
2017-10-26T06:52:45.692Z,34.93
2017-10-26T06:55:13.882Z,54.57
2017-10-26T06:57:42.205Z,35.83
2017-10-26T07:00:10.337Z,28.97
2017-10-26T07:02:38.852Z,24.43
2017-10-26T07:05:07.889Z,33.60
2017-10-26T07:07:36.112Z,74.90
2017-10-26T07:10:04.289Z,38.90
2017-10-26T07:12:32.413Z,69.60
2017-10-26T07:15:01.368Z,31.17
2017-10-26T07:17:30.488Z,24.77
2017-10-26T07:19:58.649Z,24.30
2017-10-26T07:22:26.935Z,24.63
2017-10-26T07:24:55.081Z,23.63
2017-10-26T07:27:24.020Z,25.10
2017-10-26T07:29:52.157Z,19.73
2017-10-26T07:32:20.290Z,22.20
2017-10-26T07:34:48.432Z,17.40
2017-10-26T07:37:16.576Z,24.13
2017-10-26T07:39:44.771Z,19.13
2017-10-26T07:42:13.801Z,16.60
2017-10-26T07:44:41.932Z,20.10
2017-10-26T07:47:10.127Z,25.97
2017-10-26T07:49:38.270Z,20.03
2017-10-26T07:52:06.440Z,29.70
2017-10-26T07:54:34.622Z,27.23
2017-10-26T07:57:02.927Z,19.50
2017-10-26T07:59:31.103Z,23.00
2017-10-26T08:01:59.366Z,18.00
2017-10-26T08:04:27.521Z,18.77
2017-10-26T08:06:55.823Z,17.83
2017-10-26T08:09:23.988Z,20.57
2017-10-26T08:11:52.263Z,26.30
2017-10-26T08:14:20.401Z,20.53
2017-10-26T08:16:49.321Z,27.07
2017-10-26T08:19:17.482Z,16.63
2017-10-26T08:21:45.777Z,22.47
2017-10-26T08:24:14.118Z,20.30
2017-10-26T08:26:43.014Z,16.97
2017-10-26T08:29:12.005Z,19.83
2017-10-26T08:31:40.221Z,19.23
2017-10-26T08:34:08.364Z,20.50
2017-10-26T08:36:36.484Z,21.63
2017-10-26T08:39:04.782Z,19.33
2017-10-26T08:41:33.687Z,15.50
2017-10-26T08:44:01.851Z,22.40
2017-10-26T08:46:30.838Z,13.70
2017-10-26T08:48:59.938Z,12.00
2017-10-26T08:51:28.128Z,18.93
2017-10-26T08:53:56.533Z,17.70
2017-10-26T08:56:24.721Z,19.27
2017-10-26T08:58:52.922Z,16.60
2017-10-26T09:01:21.193Z,17.90
2017-10-26T09:03:49.393Z,22.17
2017-10-26T09:06:18.365Z,15.67
2017-10-26T09:08:46.483Z,20.10
2017-10-26T09:11:14.644Z,19.63
2017-10-26T09:13:42.870Z,22.70
2017-10-26T09:16:11.022Z,21.90
2017-10-26T09:18:39.198Z,22.60
2017-10-26T09:21:07.445Z,23.13
2017-10-26T09:23:35.582Z,24.67
2017-10-26T09:26:04.548Z,25.73
2017-10-26T09:28:32.895Z,26.10
2017-10-26T09:31:01.052Z,26.93
2017-10-26T09:33:35.819Z,26.60
2017-10-26T09:36:05.446Z,30.13
2017-10-26T09:38:33.591Z,31.10
2017-10-26T09:41:01.856Z,23.03
2017-10-26T09:43:30.034Z,28.10
2017-10-26T09:45:58.198Z,30.03
2017-10-26T09:48:26.384Z,27.37
2017-10-26T09:50:54.640Z,27.30
2017-10-26T09:53:22.781Z,31.47
2017-10-26T09:55:51.721Z,27.27
2017-10-26T09:58:20.109Z,30.60
2017-10-26T10:00:48.365Z,36.10
2017-10-26T10:03:16.473Z,30.53
2017-10-26T10:05:44.685Z,26.70
2017-10-26T10:08:12.868Z,30.63
2017-10-26T10:10:41.062Z,33.37
2017-10-26T10:13:09.239Z,32.73
2017-10-26T10:15:37.578Z,29.87
2017-10-26T10:18:06.507Z,44.27
2017-10-26T10:20:34.673Z,34.63
2017-10-26T10:23:02.847Z,32.83
2017-10-26T10:25:31.023Z,42.07
2017-10-26T10:27:59.215Z,43.40
2017-10-26T10:30:27.408Z,39.70
2017-10-26T10:32:55.619Z,46.00
2017-10-26T10:35:23.750Z,47.73
2017-10-26T10:37:52.711Z,49.97
2017-10-26T10:40:21.602Z,58.00
2017-10-26T10:42:49.768Z,56.00
2017-10-26T10:45:17.922Z,48.90
2017-10-26T10:47:46.078Z,47.80
2017-10-26T10:50:15.073Z,53.50
2017-10-26T10:52:43.977Z,53.37
2017-10-26T10:55:13.005Z,46.93
2017-10-26T10:57:41.182Z,45.30
2017-10-26T11:00:15.192Z,48.00
2017-10-26T11:02:43.441Z,44.50
2017-10-26T11:05:11.580Z,44.27
2017-10-26T11:07:40.490Z,48.60
2017-10-26T11:10:08.761Z,39.10
2017-10-26T11:12:36.915Z,36.43
2017-10-26T11:15:05.804Z,42.33
2017-10-26T11:17:34.019Z,37.13
2017-10-26T11:20:02.236Z,37.53
2017-10-26T11:22:31.177Z,33.40
2017-10-26T11:24:59.381Z,38.17
2017-10-26T11:27:27.525Z,37.03
2017-10-26T11:29:55.697Z,38.73
2017-10-26T11:32:24.598Z,36.77
2017-10-26T11:34:52.748Z,33.70
2017-10-26T11:37:21.039Z,33.80
2017-10-26T11:39:49.182Z,32.03
2017-10-26T11:42:17.485Z,30.83
2017-10-26T11:44:45.861Z,26.13
2017-10-26T11:47:14.014Z,28.23
2017-10-26T11:49:42.226Z,24.83
2017-10-26T11:52:10.393Z,24.03
2017-10-26T11:54:38.553Z,33.93
2017-10-26T11:57:06.712Z,26.90
2017-10-26T11:59:34.862Z,32.50
2017-10-26T12:02:03.792Z,31.50
2017-10-26T12:04:31.946Z,35.67
2017-10-26T12:07:00.792Z,31.30
2017-10-26T12:09:29.046Z,28.50
2017-10-26T12:11:57.193Z,28.17
2017-10-26T12:14:25.356Z,26.43
2017-10-26T12:16:53.525Z,30.50
2017-10-26T12:19:21.680Z,27.00
2017-10-26T12:21:50.612Z,24.37
2017-10-26T12:24:18.859Z,24.40
2017-10-26T12:26:47.799Z,27.07
2017-10-26T12:29:15.941Z,21.30
2017-10-26T12:31:44.120Z,26.00
2017-10-26T12:34:12.526Z,25.63
2017-10-26T12:36:40.660Z,24.40
2017-10-26T12:39:09.603Z,21.97
2017-10-26T12:41:38.589Z,25.10
2017-10-26T12:44:06.746Z,24.43
2017-10-26T12:46:34.897Z,24.17
2017-10-26T12:49:03.139Z,21.57
2017-10-26T12:51:32.166Z,33.03
2017-10-26T12:54:00.319Z,22.27
2017-10-26T12:56:28.481Z,23.63
2017-10-26T12:58:57.397Z,20.77
2017-10-26T13:01:25.627Z,25.10
2017-10-26T13:03:54.533Z,29.50
2017-10-26T13:06:23.590Z,24.80
2017-10-26T13:08:51.777Z,30.67
2017-10-26T13:11:19.984Z,24.83
2017-10-26T13:13:48.974Z,23.77
2017-10-26T13:16:17.212Z,22.60
2017-10-26T13:18:45.387Z,21.83
2017-10-26T13:21:13.512Z,23.90
2017-10-26T13:23:41.794Z,26.27
2017-10-26T13:26:10.823Z,26.73
2017-10-26T13:28:39.063Z,24.10
2017-10-26T13:31:07.239Z,23.90
2017-10-26T13:33:35.416Z,24.13
2017-10-26T13:36:03.621Z,23.30
2017-10-26T13:38:31.818Z,26.20
2017-10-26T13:41:00.100Z,20.30
2017-10-26T13:43:28.350Z,23.27
2017-10-26T13:45:57.306Z,20.20
2017-10-26T13:48:25.541Z,22.80
2017-10-26T13:50:54.622Z,27.83
2017-10-26T13:53:23.629Z,21.60
2017-10-26T13:55:52.544Z,21.40
2017-10-26T13:58:20.713Z,19.70
2017-10-26T14:00:48.932Z,19.70
2017-10-26T14:03:17.077Z,22.20
2017-10-26T14:05:45.224Z,23.90
2017-10-26T14:08:13.544Z,19.30
2017-10-26T14:10:41.760Z,16.97
2017-10-26T14:13:10.708Z,18.70
2017-10-26T14:15:38.944Z,19.70
2017-10-26T14:18:07.106Z,19.80
2017-10-26T14:20:36.111Z,21.53
2017-10-26T14:23:04.479Z,23.37
2017-10-26T14:25:32.779Z,21.17
2017-10-26T14:28:00.959Z,27.20
2017-10-26T14:30:29.180Z,23.00
2017-10-26T14:32:57.373Z,24.40
2017-10-26T14:35:26.394Z,25.67
2017-10-26T14:37:54.552Z,29.33
2017-10-26T14:40:22.806Z,34.03
2017-10-26T14:42:51.722Z,25.93
2017-10-26T14:45:20.116Z,28.50
2017-10-26T14:47:48.594Z,30.40
2017-10-26T14:50:16.979Z,22.67
2017-10-26T14:52:45.259Z,20.83
2017-10-26T14:55:13.461Z,26.60
2017-10-26T14:57:41.805Z,22.07
2017-10-26T15:00:10.313Z,19.93
2017-10-26T15:02:38.472Z,16.67
2017-10-26T15:05:06.723Z,22.43
2017-10-26T15:07:35.638Z,19.03
2017-10-26T15:10:03.798Z,17.00
2017-10-26T15:12:32.067Z,21.50
2017-10-26T15:15:01.430Z,15.63
2017-10-26T15:17:29.742Z,17.00
2017-10-26T15:19:57.894Z,16.17
2017-10-26T15:22:26.820Z,15.53
2017-10-26T15:24:55.013Z,12.60
2017-10-26T15:27:23.194Z,14.97
2017-10-26T15:29:51.396Z,13.53
2017-10-26T15:32:19.598Z,13.03
2017-10-26T15:34:48.695Z,14.70
2017-10-26T15:37:17.593Z,12.30
2017-10-26T15:39:45.753Z,17.03
2017-10-26T15:42:14.729Z,15.40
2017-10-26T15:44:42.902Z,15.23
2017-10-26T15:47:11.061Z,15.97
2017-10-26T15:49:39.263Z,14.90
2017-10-26T15:52:08.223Z,15.23
2017-10-26T15:54:37.154Z,16.53
2017-10-26T15:57:05.373Z,13.83
2017-10-26T15:59:33.647Z,14.73
2017-10-26T16:02:01.794Z,15.53
2017-10-26T16:04:29.980Z,10.43
2017-10-26T16:06:58.246Z,12.80
2017-10-26T16:09:26.554Z,15.50
2017-10-26T16:11:54.695Z,17.63
2017-10-26T16:14:22.905Z,14.87
2017-10-26T16:16:51.082Z,14.00
2017-10-26T16:19:19.265Z,12.67
2017-10-26T16:21:47.595Z,14.70
2017-10-26T16:24:16.842Z,13.20
2017-10-26T16:26:45.002Z,12.03
2017-10-26T16:29:13.243Z,14.27
2017-10-26T16:31:42.201Z,13.10
2017-10-26T16:34:10.363Z,12.27
2017-10-26T16:36:38.531Z,14.60
2017-10-26T16:39:06.799Z,13.17
2017-10-26T16:41:35.743Z,12.93
2017-10-26T16:44:03.894Z,11.30
2017-10-26T16:46:32.076Z,20.43
2017-10-26T16:49:00.223Z,15.07
2017-10-26T16:51:28.378Z,14.50
2017-10-26T16:53:57.350Z,13.67
2017-10-26T16:56:25.580Z,15.67
2017-10-26T16:58:53.776Z,14.93
2017-10-26T17:01:21.934Z,15.23
2017-10-26T17:03:50.101Z,17.37
2017-10-26T17:06:18.389Z,11.90
2017-10-26T17:08:46.614Z,10.13
2017-10-26T17:11:14.906Z,10.00
2017-10-26T17:13:43.098Z,16.33
2017-10-26T17:16:11.288Z,14.07
2017-10-26T17:18:39.478Z,20.07
2017-10-26T17:21:07.677Z,17.93
2017-10-26T17:23:35.851Z,11.93
2017-10-26T17:26:04.866Z,21.60
2017-10-26T17:28:33.068Z,18.20
2017-10-26T17:31:01.245Z,13.07
2017-10-26T17:33:29.404Z,13.87
2017-10-26T17:35:57.570Z,15.30
2017-10-26T17:38:25.978Z,18.47
2017-10-26T17:40:54.814Z,15.90
2017-10-26T17:43:22.992Z,20.37
2017-10-26T17:45:51.156Z,20.13
2017-10-26T17:48:19.282Z,19.93
2017-10-26T17:50:47.477Z,22.97
2017-10-26T17:53:15.675Z,22.73
2017-10-26T17:55:44.703Z,25.37
2017-10-26T17:58:12.870Z,18.90
2017-10-26T18:00:41.831Z,14.00
2017-10-26T18:03:10.096Z,10.70
2017-10-26T18:05:38.248Z,11.07
2017-10-26T18:08:06.490Z,10.40
2017-10-26T18:10:34.662Z,13.53
2017-10-26T18:13:02.864Z,15.93
2017-10-26T18:15:31.112Z,17.83
2017-10-26T18:17:59.344Z,18.43
2017-10-26T18:20:28.360Z,21.03
2017-10-26T18:22:57.365Z,17.57
2017-10-26T18:25:25.565Z,28.60
2017-10-26T18:27:53.768Z,24.93
2017-10-26T18:30:21.975Z,28.43
2017-10-26T18:32:50.911Z,38.90
2017-10-26T18:35:19.117Z,55.30
2017-10-26T18:37:47.302Z,58.63
2017-10-26T18:40:15.491Z,49.47
2017-10-26T18:42:45.087Z,50.70
2017-10-26T18:45:13.339Z,30.20
2017-10-26T18:47:41.623Z,25.10
2017-10-26T18:50:11.166Z,21.77
2017-10-26T18:52:40.107Z,24.10
2017-10-26T18:55:08.294Z,28.17
2017-10-26T18:57:37.398Z,23.53
2017-10-26T19:00:06.344Z,24.33
2017-10-26T19:02:35.283Z,22.87
2017-10-26T19:05:03.614Z,21.23
2017-10-26T19:07:31.877Z,22.10
2017-10-26T19:10:00.058Z,23.10
2017-10-26T19:12:28.271Z,34.50
2017-10-26T19:14:56.520Z,20.70
2017-10-26T19:17:24.804Z,27.73
2017-10-26T19:19:52.971Z,24.93
2017-10-26T19:22:21.157Z,18.90
2017-10-26T19:24:49.354Z,23.60
2017-10-26T19:27:18.310Z,21.67
2017-10-26T19:29:47.281Z,20.00
2017-10-26T19:32:15.481Z,24.57
2017-10-26T19:34:43.670Z,20.13
2017-10-26T19:37:11.865Z,25.40
2017-10-26T19:39:40.035Z,23.13
2017-10-26T19:42:08.284Z,26.33
2017-10-26T19:44:36.531Z,26.90
2017-10-26T19:47:04.771Z,23.43
2017-10-26T19:49:32.930Z,25.50
2017-10-26T19:52:01.078Z,26.17
2017-10-26T19:54:29.297Z,23.13
2017-10-26T19:56:57.461Z,21.50
2017-10-26T19:59:25.620Z,22.10
2017-10-26T20:01:53.781Z,19.93
2017-10-26T20:04:21.994Z,25.20
2017-10-26T20:06:50.924Z,21.47
2017-10-26T20:09:19.140Z,25.70
2017-10-26T20:11:47.332Z,20.60
2017-10-26T20:14:16.337Z,28.17
2017-10-26T20:16:44.585Z,20.83
2017-10-26T20:19:12.768Z,16.77
2017-10-26T20:21:40.945Z,22.47
2017-10-26T20:24:09.086Z,23.37
2017-10-26T20:26:37.249Z,24.70
2017-10-26T20:29:05.470Z,19.60
2017-10-26T20:31:33.656Z,18.60
2017-10-26T20:34:02.574Z,20.60
2017-10-26T20:36:30.739Z,21.00
2017-10-26T20:38:58.900Z,22.47
2017-10-26T20:41:27.097Z,19.60
2017-10-26T20:43:55.305Z,21.33
2017-10-26T20:46:23.459Z,21.23
2017-10-26T20:48:51.590Z,23.63
2017-10-26T20:51:25.538Z,24.90
2017-10-26T20:53:59.307Z,26.03
2017-10-26T20:56:43.331Z,24.00
2017-10-26T20:59:17.354Z,18.90
2017-10-26T21:01:51.313Z,20.67
2017-10-26T21:04:25.286Z,21.87
2017-10-26T21:06:54.245Z,18.50
2017-10-26T21:09:25.519Z,19.23
2017-10-26T21:11:59.295Z,19.23
2017-10-26T21:14:28.289Z,21.73
2017-10-26T21:16:57.210Z,17.20
2017-10-26T21:19:25.461Z,18.90
2017-10-26T21:21:53.740Z,18.87
2017-10-26T21:24:21.906Z,20.87
2017-10-26T21:26:50.072Z,34.40
2017-10-26T21:29:18.245Z,19.50
2017-10-26T21:31:47.119Z,19.70
2017-10-26T21:34:15.273Z,22.20
2017-10-26T21:36:43.449Z,20.63
2017-10-26T21:39:11.648Z,24.23
2017-10-26T21:41:39.830Z,23.73
2017-10-26T21:44:07.989Z,21.63
2017-10-26T21:46:36.196Z,37.67
2017-10-26T21:49:04.440Z,21.87
2017-10-26T21:51:32.665Z,20.10
2017-10-26T21:54:01.618Z,21.03
2017-10-26T21:56:29.796Z,22.17
2017-10-26T21:58:57.932Z,19.60
2017-10-26T22:01:26.126Z,18.63
2017-10-26T22:03:54.318Z,21.40
2017-10-26T22:06:22.473Z,22.63
2017-10-26T22:08:50.633Z,21.30
2017-10-26T22:11:18.774Z,21.30
2017-10-26T22:13:46.918Z,22.47
2017-10-26T22:16:15.078Z,17.00
2017-10-26T22:18:43.324Z,18.63
2017-10-26T22:21:12.355Z,20.20
2017-10-26T22:23:40.531Z,18.67
2017-10-26T22:26:08.726Z,20.67
2017-10-26T22:28:37.637Z,19.70
2017-10-26T22:31:05.779Z,27.07
2017-10-26T22:33:34.746Z,19.87
2017-10-26T22:36:02.891Z,19.90
2017-10-26T22:38:31.053Z,18.30
2017-10-26T22:40:59.190Z,16.60
2017-10-26T22:43:28.218Z,17.87
2017-10-26T22:45:56.406Z,18.80
2017-10-26T22:48:24.588Z,18.90
2017-10-26T22:50:52.716Z,19.37
2017-10-26T22:53:20.889Z,18.73
2017-10-26T22:55:49.793Z,19.63
2017-10-26T22:58:18.732Z,18.07
2017-10-26T23:00:46.983Z,22.40
2017-10-26T23:03:16.018Z,15.00
2017-10-26T23:05:44.201Z,20.90
2017-10-26T23:08:13.159Z,18.87
2017-10-26T23:10:41.361Z,24.70
2017-10-26T23:13:09.531Z,21.87
2017-10-26T23:15:37.666Z,17.53
2017-10-26T23:18:05.831Z,18.23
2017-10-26T23:20:34.015Z,18.70
2017-10-26T23:23:02.174Z,17.50
2017-10-26T23:25:30.313Z,17.90
2017-10-26T23:27:59.338Z,28.50
2017-10-26T23:30:27.514Z,29.53
2017-10-26T23:32:55.676Z,20.57
2017-10-26T23:35:23.907Z,24.90
2017-10-26T23:37:52.095Z,21.33
2017-10-26T23:40:21.011Z,32.90
2017-10-26T23:42:49.211Z,27.23
2017-10-26T23:45:17.355Z,36.93
2017-10-26T23:47:45.528Z,25.33
2017-10-26T23:50:14.445Z,22.40
2017-10-26T23:52:42.621Z,20.70
2017-10-26T23:55:11.524Z,21.40
2017-10-26T23:57:39.676Z,23.67
